createdAt,value
2022-10-01T00:02:09.566Z,64.82
2022-10-01T00:04:40.190Z,64.99
2022-10-01T00:07:15.577Z,65.69
2022-10-01T00:09:43.200Z,65.01
2022-10-01T00:12:11.132Z,65.35
2022-10-01T00:14:39.866Z,65.48
2022-10-01T00:17:07.579Z,66.04
2022-10-01T00:19:36.111Z,65.69
2022-10-01T00:22:05.210Z,65.53
2022-10-01T00:24:33.205Z,65.51
2022-10-01T00:27:01.288Z,65.44
2022-10-01T00:29:28.842Z,65.82
2022-10-01T00:31:57.531Z,66.11
2022-10-01T00:34:25.574Z,65.94
2022-10-01T00:36:53.185Z,66.20
2022-10-01T00:39:21.471Z,66.22
2022-10-01T00:41:50.639Z,67.08
2022-10-01T00:44:31.081Z,67.40
2022-10-01T00:47:29.721Z,67.32
2022-10-01T00:50:16.775Z,67.05
2022-10-01T00:52:48.803Z,66.71
2022-10-01T00:55:22.253Z,67.00
2022-10-01T00:57:51.142Z,67.30
2022-10-01T01:00:19.522Z,67.58
2022-10-01T01:02:47.543Z,67.47
2022-10-01T01:05:16.479Z,67.38
2022-10-01T01:07:49.160Z,67.13
2022-10-01T01:10:23.693Z,67.85
2022-10-01T01:13:11.969Z,67.91
2022-10-01T01:15:56.028Z,67.70
2022-10-01T01:18:53.384Z,67.78
2022-10-01T01:21:37.362Z,67.48
2022-10-01T01:24:05.486Z,67.77
2022-10-01T01:26:37.211Z,67.58
2022-10-01T01:29:15.183Z,67.84
2022-10-01T01:31:46.981Z,68.19
2022-10-01T01:34:23.328Z,67.90
2022-10-01T01:36:58.926Z,68.21
2022-10-01T01:39:30.542Z,67.92
2022-10-01T01:42:03.923Z,68.35
2022-10-01T01:44:36.117Z,68.35
2022-10-01T01:47:07.805Z,68.53
2022-10-01T01:49:36.655Z,68.54
2022-10-01T01:52:16.066Z,68.60
2022-10-01T01:54:47.919Z,68.84
2022-10-01T01:57:20.321Z,68.66
2022-10-01T01:59:47.962Z,68.89
2022-10-01T02:02:24.563Z,69.01
2022-10-01T02:05:07.627Z,68.74
2022-10-01T02:08:02.372Z,68.45
2022-10-01T02:10:45.474Z,68.58
2022-10-01T02:14:01.846Z,68.29
2022-10-01T02:16:53.938Z,68.11
2022-10-01T02:19:48.932Z,68.37
2022-10-01T02:22:22.630Z,68.61
2022-10-01T02:24:58.894Z,68.74
2022-10-01T02:27:47.484Z,69.35
2022-10-01T02:30:15.888Z,69.92
2022-10-01T02:32:54.019Z,69.37
2022-10-01T02:35:38.752Z,69.40
2022-10-01T02:38:51.176Z,69.62
2022-10-01T02:42:00.160Z,69.63
2022-10-01T02:44:40.926Z,69.99
2022-10-01T02:51:46.775Z,69.88
2022-10-01T02:58:35.767Z,69.55
2022-10-01T03:01:21.627Z,68.96
2022-10-01T03:04:13.230Z,68.58
2022-10-01T03:06:50.429Z,68.17
2022-10-01T03:09:51.372Z,67.71
2022-10-01T03:12:37.315Z,67.29
2022-10-01T03:15:08.015Z,67.44
2022-10-01T03:17:37.519Z,67.75
2022-10-01T03:20:18.985Z,67.93
2022-10-01T03:22:47.409Z,68.00
2022-10-01T03:25:16.306Z,67.97
2022-10-01T03:27:52.826Z,68.15
2022-10-01T03:30:24.534Z,68.10
2022-10-01T03:32:52.300Z,67.78
2022-10-01T03:35:20.846Z,68.60
2022-10-01T03:37:48.543Z,68.47
2022-10-01T03:40:16.314Z,68.23
2022-10-01T03:42:44.038Z,68.19
2022-10-01T03:45:11.933Z,68.16
2022-10-01T03:47:40.418Z,68.29
2022-10-01T03:50:08.968Z,68.45
2022-10-01T03:52:37.279Z,68.42
2022-10-01T03:55:06.637Z,68.36
2022-10-01T03:57:34.701Z,68.35
2022-10-01T04:00:03.129Z,68.49
2022-10-01T04:02:38.948Z,68.41
2022-10-01T04:05:07.874Z,68.35
2022-10-01T04:07:35.617Z,68.91
2022-10-01T04:10:04.654Z,68.81
2022-10-01T04:12:33.892Z,69.19
2022-10-01T04:15:04.918Z,69.12
2022-10-01T04:17:32.827Z,69.18
2022-10-01T04:20:00.864Z,69.56
2022-10-01T04:22:29.372Z,70.32
2022-10-01T04:24:57.188Z,69.89
2022-10-01T04:27:26.626Z,69.78
2022-10-01T04:29:56.160Z,69.82
2022-10-01T04:32:23.835Z,70.06
2022-10-01T04:34:56.377Z,69.94
2022-10-01T04:37:28.630Z,69.59
2022-10-01T04:39:57.082Z,69.37
2022-10-01T04:42:24.877Z,68.78
2022-10-01T04:44:52.601Z,68.58
2022-10-01T04:47:21.871Z,68.83
2022-10-01T04:49:50.189Z,68.33
2022-10-01T04:52:17.866Z,68.49
2022-10-01T04:54:45.589Z,68.10
2022-10-01T04:57:13.421Z,67.44
2022-10-01T04:59:41.255Z,66.78
2022-10-01T05:02:09.619Z,66.71
2022-10-01T05:04:37.769Z,66.46
2022-10-01T05:07:06.587Z,66.15
2022-10-01T05:09:34.478Z,66.01
2022-10-01T05:12:03.073Z,65.72
2022-10-01T05:14:30.492Z,65.42
2022-10-01T05:16:58.510Z,65.19
2022-10-01T05:19:29.652Z,64.43
2022-10-01T05:21:57.300Z,64.22
2022-10-01T05:24:26.114Z,64.39
2022-10-01T05:26:54.799Z,63.57
2022-10-01T05:29:22.866Z,63.46
2022-10-01T05:31:50.592Z,63.47
2022-10-01T05:34:18.461Z,63.87
2022-10-01T05:36:46.681Z,63.93
2022-10-01T05:39:14.138Z,63.71
2022-10-01T05:41:42.618Z,63.88
2022-10-01T05:44:10.373Z,63.65
2022-10-01T05:46:38.539Z,63.44
2022-10-01T05:49:08.514Z,63.31
2022-10-01T05:51:37.021Z,62.81
2022-10-01T05:54:04.811Z,62.92
2022-10-01T05:56:32.771Z,62.24
2022-10-01T05:59:00.475Z,61.67
2022-10-01T06:01:28.953Z,61.31
2022-10-01T06:03:57.295Z,60.76
2022-10-01T06:06:26.893Z,60.60
2022-10-01T06:08:55.193Z,60.18
2022-10-01T06:11:24.614Z,59.80
2022-10-01T06:13:52.866Z,59.55
2022-10-01T06:16:21.452Z,59.03
2022-10-01T06:18:49.901Z,59.24
2022-10-01T06:21:17.391Z,58.96
2022-10-01T06:23:45.217Z,58.69
2022-10-01T06:26:12.873Z,58.32
2022-10-01T06:28:41.039Z,58.16
2022-10-01T06:31:08.709Z,57.95
2022-10-01T06:33:36.918Z,57.73
2022-10-01T06:36:05.429Z,57.69
2022-10-01T06:38:33.123Z,57.70
2022-10-01T06:41:02.747Z,57.77
2022-10-01T06:43:33.061Z,57.62
2022-10-01T06:46:05.829Z,57.29
2022-10-01T06:48:36.317Z,56.99
2022-10-01T06:51:04.617Z,57.34
2022-10-01T06:53:32.762Z,57.26
2022-10-01T06:56:08.426Z,56.74
2022-10-01T06:58:35.987Z,56.24
2022-10-01T07:01:06.921Z,55.45
2022-10-01T07:03:35.246Z,54.73
2022-10-01T07:06:09.616Z,54.20
2022-10-01T07:08:45.332Z,54.44
2022-10-01T07:11:14.740Z,54.23
2022-10-01T07:13:54.911Z,53.57
2022-10-01T07:16:22.746Z,53.97
2022-10-01T07:18:50.539Z,54.61
2022-10-01T07:21:24.879Z,55.07
2022-10-01T07:23:53.596Z,53.29
2022-10-01T07:26:24.242Z,53.41
2022-10-01T07:28:55.814Z,53.13
2022-10-01T07:31:24.673Z,52.70
2022-10-01T07:34:07.007Z,52.58
2022-10-01T07:36:37.749Z,53.45
2022-10-01T07:39:11.475Z,53.11
2022-10-01T07:41:43.049Z,52.40
2022-10-01T07:44:14.993Z,52.27
2022-10-01T07:46:42.525Z,52.22
2022-10-01T07:49:22.010Z,52.97
2022-10-01T07:52:00.188Z,53.58
2022-10-01T07:54:31.028Z,53.79
2022-10-01T07:57:08.750Z,53.56
2022-10-01T07:59:58.152Z,52.90
2022-10-01T08:02:56.371Z,52.79
2022-10-01T08:05:33.724Z,52.08
2022-10-01T08:08:17.384Z,51.81
2022-10-01T08:11:42.851Z,51.46
2022-10-01T08:14:23.652Z,51.11
2022-10-01T08:16:56.461Z,52.51
2022-10-01T08:19:36.963Z,51.15
2022-10-01T08:22:05.971Z,51.41
2022-10-01T08:25:05.127Z,49.93
2022-10-01T08:27:40.695Z,50.07
2022-10-01T08:30:11.233Z,49.72
2022-10-01T08:32:48.199Z,49.44
2022-10-01T08:35:31.525Z,49.81
2022-10-01T08:38:08.704Z,49.02
2022-10-01T08:41:16.876Z,48.87
2022-10-01T08:44:38.908Z,48.14
2022-10-01T08:47:41.837Z,47.76
2022-10-01T08:50:33.582Z,46.80
2022-10-01T08:53:08.923Z,46.91
2022-10-01T08:55:50.984Z,50.02
2022-10-01T08:58:35.862Z,47.49
2022-10-01T09:01:04.113Z,47.88
2022-10-01T09:03:35.378Z,47.64
2022-10-01T09:06:20.996Z,46.72
2022-10-01T09:09:07.041Z,45.46
2022-10-01T09:12:06.145Z,45.26
2022-10-01T09:15:06.977Z,44.51
2022-10-01T09:17:52.431Z,43.83
2022-10-01T09:20:45.768Z,43.48
2022-10-01T09:23:31.042Z,43.28
2022-10-01T09:26:07.346Z,42.59
2022-10-01T09:28:47.616Z,42.50
2022-10-01T09:31:30.603Z,41.84
2022-10-01T09:34:12.999Z,42.03
2022-10-01T09:37:08.041Z,41.77
2022-10-01T09:39:55.386Z,41.18
2022-10-01T09:42:30.243Z,41.43
2022-10-01T09:44:58.651Z,41.59
2022-10-01T09:47:26.463Z,40.87
2022-10-01T09:49:53.978Z,41.05
2022-10-01T09:52:41.924Z,41.20
2022-10-01T09:55:18.890Z,41.32
2022-10-01T09:58:09.830Z,41.59
2022-10-01T10:00:49.900Z,41.46
2022-10-01T10:03:31.144Z,40.19
2022-10-01T10:06:01.403Z,40.75
2022-10-01T10:08:32.348Z,40.83
2022-10-01T10:11:15.323Z,40.25
2022-10-01T10:13:52.273Z,40.18
2022-10-01T10:16:26.739Z,41.28
2022-10-01T10:19:02.565Z,39.95
2022-10-01T10:21:34.495Z,40.85
2022-10-01T10:24:20.870Z,41.54
2022-10-01T10:26:55.457Z,40.50
2022-10-01T10:29:41.713Z,40.54
2022-10-01T10:32:24.351Z,40.78
2022-10-01T10:34:53.553Z,40.87
2022-10-01T10:37:29.277Z,41.02
2022-10-01T10:40:08.391Z,40.47
2022-10-01T10:42:47.186Z,40.06
2022-10-01T10:45:23.401Z,40.06
2022-10-01T10:47:53.773Z,39.73
2022-10-01T10:50:29.493Z,39.71
2022-10-01T10:52:59.274Z,39.37
2022-10-01T10:55:32.226Z,39.20
2022-10-01T10:58:19.989Z,39.56
2022-10-01T11:00:59.333Z,39.40
2022-10-01T11:03:32.772Z,39.58
2022-10-01T11:06:24.916Z,39.42
2022-10-01T11:09:00.886Z,40.38
2022-10-01T11:11:54.650Z,39.50
2022-10-01T11:14:27.920Z,39.51
2022-10-01T11:17:13.732Z,39.83
2022-10-01T11:20:20.646Z,39.31
2022-10-01T11:23:17.253Z,39.53
2022-10-01T11:25:58.635Z,39.87
2022-10-01T11:28:34.799Z,39.17
2022-10-01T11:31:07.691Z,40.52
2022-10-01T11:33:35.134Z,38.65
2022-10-01T11:36:34.108Z,38.79
2022-10-01T11:39:06.020Z,39.71
2022-10-01T11:41:53.357Z,37.99
2022-10-01T11:44:30.600Z,39.39
2022-10-01T11:47:27.319Z,37.13
2022-10-01T11:50:08.669Z,38.42
2022-10-01T11:52:53.113Z,36.50
2022-10-01T11:55:59.568Z,39.66
2022-10-01T11:58:57.597Z,40.66
2022-10-01T12:01:28.651Z,40.83
2022-10-01T12:04:40.081Z,40.83
2022-10-01T12:07:40.947Z,40.89
2022-10-01T12:10:29.004Z,40.61
2022-10-01T12:13:19.487Z,41.53
2022-10-01T12:16:06.358Z,41.25
2022-10-01T12:18:39.562Z,40.35
2022-10-01T12:21:20.125Z,39.49
2022-10-01T12:23:57.864Z,40.51
2022-10-01T12:27:05.230Z,41.25
2022-10-01T12:29:53.110Z,41.33
2022-10-01T12:32:41.507Z,40.41
2022-10-01T12:35:36.638Z,40.08
2022-10-01T12:38:28.965Z,40.08
2022-10-01T12:41:39.762Z,40.49
2022-10-01T12:44:45.298Z,40.46
2022-10-01T12:47:39.880Z,40.20
2022-10-01T12:50:35.699Z,39.78
2022-10-01T12:53:08.896Z,39.97
2022-10-01T12:56:04.994Z,39.68
2022-10-01T12:58:41.625Z,39.41
2022-10-01T13:01:49.594Z,39.23
2022-10-01T13:04:35.989Z,39.44
2022-10-01T13:07:22.324Z,39.62
2022-10-01T13:10:22.893Z,39.17
2022-10-01T13:13:15.436Z,39.60
2022-10-01T13:15:47.445Z,39.13
2022-10-01T13:18:14.794Z,39.39
2022-10-01T13:21:00.586Z,39.87
2022-10-01T13:23:51.463Z,40.77
2022-10-01T13:26:42.678Z,41.30
2022-10-01T13:29:16.585Z,41.67
2022-10-01T13:31:57.146Z,41.11
2022-10-01T13:34:47.061Z,41.41
2022-10-01T13:37:17.511Z,40.87
2022-10-01T13:39:46.846Z,42.14
2022-10-01T13:42:27.420Z,40.97
2022-10-01T13:45:04.919Z,41.35
2022-10-01T13:47:39.192Z,41.01
2022-10-01T13:50:19.801Z,41.06
2022-10-01T13:52:47.671Z,41.40
2022-10-01T13:55:43.029Z,40.89
2022-10-01T13:58:30.365Z,40.74
2022-10-01T14:01:01.090Z,40.89
2022-10-01T14:03:39.948Z,40.81
2022-10-01T14:06:16.051Z,40.69
2022-10-01T14:08:53.622Z,40.67
2022-10-01T14:11:48.042Z,40.49
2022-10-01T14:14:54.397Z,40.41
2022-10-01T14:17:43.445Z,40.93
2022-10-01T14:20:22.526Z,41.06
2022-10-01T14:23:21.844Z,41.44
2022-10-01T14:26:01.954Z,41.48
2022-10-01T14:28:32.081Z,41.09
2022-10-01T14:31:21.724Z,41.18
2022-10-01T14:34:29.689Z,41.25
2022-10-01T14:36:58.879Z,41.10
2022-10-01T14:39:29.222Z,40.95
2022-10-01T14:41:58.525Z,40.41
2022-10-01T14:44:39.638Z,40.63
2022-10-01T14:47:28.656Z,40.67
2022-10-01T14:49:56.542Z,40.65
2022-10-01T14:52:29.223Z,40.41
2022-10-01T14:54:59.747Z,40.44
2022-10-01T14:57:46.594Z,40.31
2022-10-01T15:00:17.796Z,39.74
2022-10-01T15:02:52.410Z,39.66
2022-10-01T15:05:32.322Z,39.56
2022-10-01T15:08:43.471Z,39.79
2022-10-01T15:11:34.308Z,40.54
2022-10-01T15:14:08.676Z,40.49
2022-10-01T15:16:37.001Z,40.95
2022-10-01T15:19:13.833Z,40.79
2022-10-01T15:21:54.419Z,40.80
2022-10-01T15:24:40.935Z,40.83
2022-10-01T15:27:11.723Z,41.80
2022-10-01T15:29:40.967Z,42.11
2022-10-01T15:32:09.600Z,43.01
2022-10-01T15:34:48.655Z,43.22
2022-10-01T15:37:25.522Z,43.42
2022-10-01T15:40:04.244Z,43.16
2022-10-01T15:42:35.186Z,43.15
2022-10-01T15:45:09.515Z,43.52
2022-10-01T15:47:52.055Z,43.77
2022-10-01T15:50:33.626Z,43.66
2022-10-01T15:53:03.946Z,43.66
2022-10-01T15:55:38.380Z,43.51
2022-10-01T15:58:11.038Z,43.74
2022-10-01T16:01:09.516Z,43.88
2022-10-01T16:03:39.842Z,44.34
2022-10-01T16:06:29.204Z,44.46
2022-10-01T16:09:10.716Z,44.73
2022-10-01T16:12:00.723Z,44.76
2022-10-01T16:14:34.303Z,45.13
2022-10-01T16:17:40.786Z,45.13
2022-10-01T16:20:17.567Z,45.27
2022-10-01T16:22:45.507Z,45.60
2022-10-01T16:25:33.437Z,45.75
2022-10-01T16:28:21.377Z,45.95
2022-10-01T16:30:51.751Z,46.01
2022-10-01T16:33:19.196Z,45.43
2022-10-01T16:35:48.972Z,46.07
2022-10-01T16:38:17.051Z,45.76
2022-10-01T16:40:49.569Z,45.88
2022-10-01T16:43:22.222Z,45.91
2022-10-01T16:46:00.287Z,45.74
2022-10-01T16:48:28.519Z,46.10
2022-10-01T16:51:06.705Z,46.50
2022-10-01T16:53:34.772Z,46.52
2022-10-01T16:56:05.214Z,46.82
2022-10-01T16:58:32.904Z,47.07
2022-10-01T17:01:06.995Z,47.35
2022-10-01T17:03:36.403Z,47.63
2022-10-01T17:06:04.263Z,47.67
2022-10-01T17:08:31.814Z,48.00
2022-10-01T17:11:03.781Z,47.98
2022-10-01T17:13:33.059Z,48.45
2022-10-01T17:16:01.703Z,48.57
2022-10-01T17:18:29.236Z,48.73
2022-10-01T17:20:56.731Z,49.13
2022-10-01T17:23:24.342Z,49.23
2022-10-01T17:25:52.195Z,49.60
2022-10-01T17:28:20.976Z,49.88
2022-10-01T17:30:49.731Z,50.08
2022-10-01T17:33:31.276Z,50.46
2022-10-01T17:35:58.570Z,50.73
2022-10-01T17:38:25.911Z,51.26
2022-10-01T17:41:01.373Z,51.46
2022-10-01T17:43:28.710Z,51.76
2022-10-01T17:46:01.137Z,51.64
2022-10-01T17:48:30.235Z,52.09
2022-10-01T17:51:09.876Z,52.61
2022-10-01T17:53:42.515Z,52.56
2022-10-01T17:56:15.416Z,52.67
2022-10-01T17:58:45.621Z,52.94
2022-10-01T18:01:23.155Z,52.97
2022-10-01T18:04:01.389Z,52.81
2022-10-01T18:06:30.417Z,52.92
2022-10-01T18:08:58.503Z,53.30
2022-10-01T18:11:28.275Z,53.28
2022-10-01T18:13:56.240Z,53.27
2022-10-01T18:16:40.635Z,53.69
2022-10-01T18:19:52.769Z,53.58
2022-10-01T18:22:13.378Z,53.74
2022-10-01T18:24:42.717Z,53.79
2022-10-01T18:27:10.568Z,53.63
2022-10-01T18:29:39.242Z,53.78
2022-10-01T18:32:19.622Z,53.62
2022-10-01T18:34:59.188Z,53.95
2022-10-01T18:37:46.086Z,54.05
2022-10-01T18:40:21.810Z,53.85
2022-10-01T18:43:13.625Z,53.85
2022-10-01T18:46:11.500Z,53.94
2022-10-01T18:48:54.657Z,53.81
2022-10-01T18:51:28.670Z,54.06
2022-10-01T18:54:34.714Z,54.18
2022-10-01T18:57:37.120Z,53.78
2022-10-01T19:00:23.897Z,53.69
2022-10-01T19:03:10.852Z,53.73
2022-10-01T19:05:48.413Z,53.84
2022-10-01T19:08:53.209Z,53.89
2022-10-01T19:12:09.509Z,53.63
2022-10-01T19:14:48.032Z,53.74
2022-10-01T19:17:53.276Z,53.69
2022-10-01T19:21:22.596Z,53.64
2022-10-01T19:23:59.886Z,53.88
2022-10-01T19:26:46.179Z,53.23
2022-10-01T19:29:26.837Z,53.05
2022-10-01T19:32:28.903Z,53.09
2022-10-01T19:35:26.985Z,53.33
2022-10-01T19:38:26.431Z,53.11
2022-10-01T19:41:06.465Z,53.62
2022-10-01T19:43:45.787Z,53.51
2022-10-01T19:46:46.654Z,53.70
2022-10-01T19:49:35.491Z,53.67
2022-10-01T19:52:33.011Z,53.85
2022-10-01T19:55:06.893Z,53.88
2022-10-01T19:57:46.688Z,53.86
2022-10-01T20:00:37.269Z,53.78
2022-10-01T20:03:25.330Z,53.91
2022-10-01T20:06:18.791Z,53.73
2022-10-01T20:09:01.620Z,53.43
2022-10-01T20:11:36.849Z,53.26
2022-10-01T20:14:55.128Z,53.68
2022-10-01T20:18:04.346Z,53.72
2022-10-01T20:21:05.076Z,54.01
2022-10-01T20:23:53.965Z,54.26
2022-10-01T20:26:35.246Z,54.74
2022-10-01T20:29:02.803Z,54.64
2022-10-01T20:31:52.727Z,55.03
2022-10-01T20:34:37.445Z,54.93
2022-10-01T20:37:35.287Z,55.20
2022-10-01T20:40:30.018Z,55.65
2022-10-01T20:54:46.854Z,56.77
2022-10-01T20:57:32.459Z,56.86
2022-10-01T21:00:22.039Z,57.36
2022-10-01T21:03:12.411Z,57.02
2022-10-01T21:09:48.820Z,57.15
2022-10-01T21:12:23.138Z,56.99
2022-10-01T21:15:01.022Z,56.83
2022-10-01T21:17:50.795Z,56.74
2022-10-01T21:20:55.868Z,56.78
2022-10-01T21:23:45.254Z,56.90
2022-10-01T21:26:19.016Z,57.46
2022-10-01T21:29:29.611Z,57.41
2022-10-01T21:32:09.943Z,57.79
2022-10-01T21:34:51.357Z,57.77
2022-10-01T21:37:40.128Z,57.55
2022-10-01T21:40:26.109Z,57.47
2022-10-01T21:43:07.662Z,57.55
2022-10-01T21:46:03.090Z,57.41
2022-10-01T21:48:37.258Z,57.45
2022-10-01T21:51:25.088Z,57.25
2022-10-01T21:54:00.334Z,57.42
2022-10-01T21:56:59.307Z,57.24
2022-10-01T21:59:51.638Z,57.45
2022-10-01T22:02:23.016Z,57.50
2022-10-01T22:05:23.138Z,57.51
2022-10-01T22:08:17.651Z,57.44
2022-10-01T22:11:54.456Z,57.51
2022-10-01T22:14:32.774Z,57.34
2022-10-01T22:17:17.823Z,57.23
2022-10-01T22:19:52.913Z,57.44
2022-10-01T22:27:05.518Z,57.68
2022-10-01T22:29:48.995Z,57.67
2022-10-01T22:32:34.118Z,57.66
2022-10-01T22:35:46.534Z,57.65
2022-10-01T22:38:57.316Z,57.61
2022-10-01T22:41:50.583Z,57.21
2022-10-01T22:44:26.256Z,56.86
2022-10-01T22:47:05.700Z,56.75
2022-10-01T22:49:51.010Z,55.98
2022-10-01T22:53:16.363Z,55.15
2022-10-01T22:56:02.424Z,55.29
2022-10-01T22:58:39.540Z,55.40
2022-10-01T23:01:36.582Z,55.39
2022-10-01T23:04:32.458Z,55.27
2022-10-01T23:07:49.516Z,55.48
2022-10-01T23:10:36.752Z,55.17
2022-10-01T23:13:15.975Z,55.37
2022-10-01T23:16:27.644Z,55.22
2022-10-01T23:19:11.970Z,55.21
2022-10-01T23:21:47.439Z,55.86
2022-10-01T23:24:22.724Z,55.64
2022-10-01T23:27:04.400Z,55.50
2022-10-01T23:29:38.083Z,55.67
2022-10-01T23:32:36.585Z,55.52
2022-10-01T23:35:21.053Z,55.12
2022-10-01T23:37:53.887Z,54.77
2022-10-01T23:40:25.427Z,54.56
2022-10-01T23:43:06.363Z,54.30
2022-10-01T23:45:43.395Z,54.30
2022-10-01T23:48:15.814Z,54.21
2022-10-01T23:50:54.695Z,54.37
2022-10-01T23:53:51.414Z,54.62
2022-10-01T23:56:44.051Z,54.72
2022-10-01T23:59:52.793Z,54.63
